createdAt,value
2018-11-10T00:00:21.832Z,14.40
2018-11-10T00:02:53.972Z,13.83
2018-11-10T00:05:24.455Z,13.73
2018-11-10T00:07:52.936Z,13.93
2018-11-10T00:10:22.771Z,13.40
2018-11-10T00:12:51.395Z,13.60
2018-11-10T00:15:20.915Z,12.70
2018-11-10T00:17:49.445Z,11.80
2018-11-10T00:20:18.171Z,11.73
2018-11-10T00:22:46.718Z,11.93
2018-11-10T00:25:15.534Z,12.47
2018-11-10T00:27:45.779Z,11.77
2018-11-10T00:30:15.744Z,12.00
2018-11-10T00:32:44.904Z,11.60
2018-11-10T00:35:13.568Z,11.23
2018-11-10T00:37:42.738Z,11.80
2018-11-10T00:40:14.102Z,10.50
2018-11-10T00:42:43.104Z,11.80
2018-11-10T00:45:11.807Z,10.97
2018-11-10T00:47:41.209Z,10.40
2018-11-10T00:50:11.526Z,10.57
2018-11-10T00:52:40.102Z,11.07
2018-11-10T00:55:08.957Z,11.27
2018-11-10T00:57:37.381Z,11.20
2018-11-10T01:00:10.633Z,11.03
2018-11-10T01:02:39.479Z,11.47
2018-11-10T01:05:08.075Z,10.47
2018-11-10T01:07:36.615Z,10.73
2018-11-10T01:10:06.450Z,10.30
2018-11-10T01:12:34.885Z,10.20
2018-11-10T01:15:03.904Z,9.40
2018-11-10T01:17:32.660Z,9.17
2018-11-10T01:20:01.114Z,9.20
2018-11-10T01:22:29.789Z,9.70
2018-11-10T01:24:59.001Z,8.80
2018-11-10T01:27:27.566Z,9.87
2018-11-10T01:29:56.302Z,8.23
2018-11-10T01:32:26.326Z,8.50
2018-11-10T01:34:58.297Z,8.57
2018-11-10T01:37:35.948Z,9.20
2018-11-10T01:40:07.219Z,7.70
2018-11-10T01:42:35.792Z,8.67
2018-11-10T01:45:05.604Z,8.10
2018-11-10T01:47:34.297Z,7.77
2018-11-10T01:50:05.911Z,7.23
2018-11-10T01:52:34.645Z,7.83
2018-11-10T01:55:03.312Z,6.93
2018-11-10T01:57:32.700Z,7.13
2018-11-10T02:00:01.225Z,6.97
2018-11-10T02:02:29.797Z,6.40
2018-11-10T02:04:58.345Z,7.17
2018-11-10T02:07:26.997Z,6.53
2018-11-10T02:09:57.659Z,6.07
2018-11-10T02:12:26.306Z,5.73
2018-11-10T02:14:54.708Z,5.73
2018-11-10T02:17:23.344Z,5.60
2018-11-10T02:19:51.909Z,4.90
2018-11-10T02:22:20.411Z,5.00
2018-11-10T02:24:49.047Z,4.40
2018-11-10T02:27:23.481Z,4.30
2018-11-10T02:29:53.800Z,4.57
2018-11-10T02:32:22.249Z,4.10
2018-11-10T02:34:51.477Z,4.37
2018-11-10T02:37:21.366Z,3.97
2018-11-10T02:39:50.183Z,4.40
2018-11-10T02:42:18.594Z,4.33
2018-11-10T02:44:49.901Z,5.00
2018-11-10T02:49:50.603Z,5.20
2018-11-10T02:52:20.064Z,4.43
2018-11-10T02:54:48.413Z,5.17
2018-11-10T02:57:16.789Z,4.40
2018-11-10T02:59:45.168Z,4.47
2018-11-10T03:02:13.660Z,4.00
2018-11-10T03:04:42.151Z,4.03
2018-11-10T03:07:11.501Z,4.13
2018-11-10T03:09:39.903Z,3.73
2018-11-10T03:12:08.332Z,4.30
2018-11-10T03:14:37.287Z,4.50
2018-11-10T03:17:05.921Z,3.90
2018-11-10T03:19:34.250Z,3.60
2018-11-10T03:22:02.804Z,4.17
2018-11-10T03:24:32.063Z,3.50
2018-11-10T03:27:00.796Z,3.77
2018-11-10T03:29:29.323Z,3.87
2018-11-10T03:31:58.032Z,4.00
2018-11-10T03:34:26.661Z,3.20
2018-11-10T03:36:56.372Z,3.23
2018-11-10T03:39:24.901Z,3.60
2018-11-10T03:41:53.291Z,4.10
2018-11-10T03:44:21.766Z,4.03
2018-11-10T03:46:50.460Z,3.97
2018-11-10T03:49:19.484Z,4.37
2018-11-10T03:51:47.948Z,4.63
2018-11-10T03:54:16.521Z,4.40
2018-11-10T03:56:45.170Z,4.47
2018-11-10T03:59:15.630Z,5.00
2018-11-10T04:01:44.213Z,6.20
2018-11-10T04:04:12.667Z,5.13
2018-11-10T04:06:42.313Z,4.63
2018-11-10T04:09:11.435Z,5.50
2018-11-10T04:11:40.056Z,4.90
2018-11-10T04:14:08.937Z,5.53
2018-11-10T04:16:37.437Z,5.60
2018-11-10T04:19:06.205Z,4.93
2018-11-10T04:21:34.697Z,4.93
2018-11-10T04:24:03.213Z,5.03
2018-11-10T04:26:31.796Z,5.50
2018-11-10T04:29:01.177Z,5.27
2018-11-10T04:31:29.731Z,5.40
2018-11-10T04:33:58.220Z,5.90
2018-11-10T04:36:26.820Z,5.97
2018-11-10T04:38:57.608Z,5.83
2018-11-10T04:41:26.246Z,6.40
2018-11-10T04:43:54.777Z,6.33
2018-11-10T04:46:23.126Z,6.10
2018-11-10T04:48:52.053Z,7.10
2018-11-10T04:51:23.289Z,6.47
2018-11-10T04:53:51.759Z,6.00
2018-11-10T04:56:20.855Z,6.00
2018-11-10T04:58:49.965Z,7.23
2018-11-10T05:01:18.528Z,7.40
2018-11-10T05:03:47.063Z,8.13
2018-11-10T05:06:15.489Z,7.07
2018-11-10T05:08:45.848Z,7.10
2018-11-10T05:11:14.176Z,7.50
2018-11-10T05:13:42.617Z,7.17
2018-11-10T05:16:11.262Z,6.50
2018-11-10T05:18:41.117Z,6.80
2018-11-10T05:21:09.547Z,7.73
2018-11-10T05:23:37.972Z,8.60
2018-11-10T05:26:06.674Z,7.00
2018-11-10T05:31:08.522Z,6.93
2018-11-10T05:33:36.816Z,6.87
2018-11-10T05:36:05.600Z,7.20
2018-11-10T05:38:35.031Z,7.47
2018-11-10T05:41:03.493Z,8.10
2018-11-10T05:43:31.867Z,8.00
2018-11-10T05:46:00.353Z,8.10
2018-11-10T05:48:33.363Z,8.63
2018-11-10T05:51:02.161Z,8.30
2018-11-10T05:53:30.627Z,8.03
2018-11-10T05:55:59.894Z,8.53
2018-11-10T05:58:28.623Z,9.60
2018-11-10T06:00:57.079Z,8.30
2018-11-10T06:03:25.458Z,9.73
2018-11-10T06:05:54.054Z,9.17
2018-11-10T06:08:22.590Z,9.00
2018-11-10T06:10:50.972Z,10.97
2018-11-10T06:13:19.419Z,10.03
2018-11-10T06:15:47.839Z,10.00
2018-11-10T06:18:21.018Z,11.17
2018-11-10T06:20:49.490Z,10.60
2018-11-10T06:23:17.935Z,10.10
2018-11-10T06:25:53.195Z,10.07
2018-11-10T06:28:21.591Z,8.90
2018-11-10T06:30:49.996Z,8.67
2018-11-10T06:33:18.645Z,8.17
2018-11-10T06:35:47.089Z,7.50
2018-11-10T06:38:15.459Z,8.30
2018-11-10T06:40:43.810Z,7.40
2018-11-10T06:43:12.354Z,7.40
2018-11-10T06:45:40.863Z,7.00
2018-11-10T06:48:09.272Z,6.93
2018-11-10T06:50:37.752Z,6.80
2018-11-10T06:53:06.660Z,7.03
2018-11-10T06:55:35.215Z,6.97
2018-11-10T06:58:03.743Z,5.90
2018-11-10T07:00:32.201Z,6.73
2018-11-10T07:03:00.566Z,6.07
2018-11-10T07:05:29.998Z,5.80
2018-11-10T07:07:58.498Z,5.70
2018-11-10T07:10:26.808Z,5.80
2018-11-10T07:12:55.727Z,5.30
2018-11-10T07:15:26.521Z,5.80
2018-11-10T07:17:54.888Z,5.40
2018-11-10T07:20:23.295Z,4.50
2018-11-10T07:22:53.196Z,5.67
2018-11-10T07:25:23.343Z,4.90
2018-11-10T07:27:51.895Z,5.53
2018-11-10T07:30:20.352Z,5.17
2018-11-10T07:32:48.856Z,4.63
2018-11-10T07:35:17.137Z,5.00
2018-11-10T07:37:45.539Z,4.57
2018-11-10T07:40:14.217Z,4.53
2018-11-10T07:42:42.602Z,4.33
2018-11-10T07:45:14.573Z,5.13
2018-11-10T07:47:43.661Z,4.57
2018-11-10T07:50:12.278Z,4.83
2018-11-10T07:52:41.579Z,4.70
2018-11-10T07:55:12.148Z,4.97
2018-11-10T07:57:40.689Z,5.10
2018-11-10T08:00:17.131Z,4.13
2018-11-10T08:02:45.693Z,3.60
2018-11-10T08:05:14.782Z,3.90
2018-11-10T08:07:43.800Z,4.83
2018-11-10T08:10:12.830Z,5.10
2018-11-10T08:12:41.170Z,5.50
2018-11-10T08:15:12.828Z,4.80
2018-11-10T08:17:41.610Z,5.30
2018-11-10T08:20:10.980Z,5.40
2018-11-10T08:22:39.417Z,5.00
2018-11-10T08:25:10.611Z,4.97
2018-11-10T08:27:39.387Z,4.37
2018-11-10T08:30:09.854Z,4.20
2018-11-10T08:32:38.180Z,3.90
2018-11-10T08:35:08.456Z,4.17
2018-11-10T08:37:37.492Z,3.80
2018-11-10T08:40:10.205Z,4.00
2018-11-10T08:42:41.640Z,3.60
2018-11-10T08:45:11.788Z,4.03
2018-11-10T08:47:42.860Z,3.77
2018-11-10T08:50:14.722Z,3.57
2018-11-10T08:52:45.268Z,3.50
2018-11-10T08:55:15.738Z,3.60
2018-11-10T08:57:45.758Z,4.27
2018-11-10T09:00:18.162Z,4.40
2018-11-10T09:02:47.402Z,3.77
2018-11-10T09:05:16.096Z,3.73
2018-11-10T09:07:44.842Z,3.63
2018-11-10T09:10:14.664Z,3.80
2018-11-10T09:12:44.875Z,3.10
2018-11-10T09:15:20.366Z,4.30
2018-11-10T09:17:49.338Z,3.60
2018-11-10T09:20:19.259Z,3.50
2018-11-10T09:22:50.903Z,4.07
2018-11-10T09:25:21.059Z,3.50
2018-11-10T09:27:49.946Z,3.30
2018-11-10T09:30:18.965Z,3.40
2018-11-10T09:32:51.453Z,3.73
2018-11-10T09:35:20.510Z,4.13
2018-11-10T09:37:51.455Z,4.37
2018-11-10T09:40:20.495Z,4.33
2018-11-10T09:42:49.170Z,4.33
2018-11-10T09:45:17.841Z,3.53
2018-11-10T09:47:46.646Z,4.03
2018-11-10T09:50:21.062Z,4.40
2018-11-10T09:52:52.297Z,3.60
2018-11-10T09:55:21.253Z,4.07
2018-11-10T09:57:50.787Z,4.20
2018-11-10T10:00:20.841Z,3.60
2018-11-10T10:02:50.917Z,3.97
2018-11-10T10:05:19.187Z,3.73
2018-11-10T10:07:47.852Z,4.47
2018-11-10T10:10:17.982Z,4.10
2018-11-10T10:15:27.141Z,4.10
2018-11-10T10:17:55.458Z,5.70
2018-11-10T10:20:25.537Z,3.87
2018-11-10T10:22:54.415Z,3.63
2018-11-10T10:25:24.518Z,3.73
2018-11-10T10:27:52.833Z,4.03
2018-11-10T10:30:23.624Z,3.80
2018-11-10T10:32:51.952Z,3.90
2018-11-10T10:35:21.349Z,3.80
2018-11-10T10:37:50.512Z,3.67
2018-11-10T10:40:18.949Z,3.63
2018-11-10T10:42:47.892Z,3.23
2018-11-10T10:45:18.778Z,3.33
2018-11-10T10:47:47.187Z,4.00
2018-11-10T10:50:16.798Z,3.97
2018-11-10T10:52:45.351Z,3.90
2018-11-10T10:55:15.034Z,4.20
2018-11-10T10:57:44.313Z,3.40
2018-11-10T11:00:19.215Z,3.40
2018-11-10T11:02:53.197Z,3.40
2018-11-10T11:05:27.253Z,3.70
2018-11-10T11:07:56.635Z,3.67
2018-11-10T11:10:25.093Z,3.37
2018-11-10T11:12:54.319Z,3.23
2018-11-10T11:15:23.280Z,3.43
2018-11-10T11:17:52.483Z,2.80
2018-11-10T11:20:22.133Z,3.27
2018-11-10T11:22:50.890Z,2.97
2018-11-10T11:25:20.073Z,3.17
2018-11-10T11:27:51.336Z,3.50
2018-11-10T11:30:22.388Z,3.60
2018-11-10T11:32:50.886Z,2.93
2018-11-10T11:35:20.174Z,3.50
2018-11-10T11:37:49.910Z,2.83
2018-11-10T11:40:20.491Z,3.37
2018-11-10T11:42:49.049Z,3.47
2018-11-10T11:45:17.555Z,3.37
2018-11-10T11:47:45.998Z,3.80
2018-11-10T11:50:15.330Z,4.00
2018-11-10T11:52:44.243Z,3.20
2018-11-10T11:55:13.743Z,3.50
2018-11-10T11:57:42.633Z,3.23
2018-11-10T12:00:13.548Z,3.20
2018-11-10T12:02:42.693Z,4.23
2018-11-10T12:05:12.658Z,3.37
2018-11-10T12:07:41.050Z,3.50
2018-11-10T12:10:13.389Z,4.50
2018-11-10T12:12:43.042Z,3.73
2018-11-10T12:15:13.749Z,4.67
2018-11-10T12:17:43.274Z,3.57
2018-11-10T12:20:14.071Z,4.67
2018-11-10T12:22:43.514Z,4.17
2018-11-10T12:25:13.736Z,4.33
2018-11-10T12:27:43.920Z,4.80
2018-11-10T12:30:12.678Z,4.50
2018-11-10T12:32:41.329Z,4.50
2018-11-10T12:35:12.449Z,3.93
2018-11-10T12:37:41.294Z,4.13
2018-11-10T12:40:11.657Z,4.00
2018-11-10T12:42:40.439Z,4.70
2018-11-10T12:45:10.449Z,4.50
2018-11-10T12:47:40.386Z,4.63
2018-11-10T12:50:12.534Z,5.10
2018-11-10T12:52:42.205Z,5.50
2018-11-10T12:55:12.440Z,4.87
2018-11-10T12:57:41.827Z,4.93
2018-11-10T13:00:12.020Z,5.37
2018-11-10T13:02:40.868Z,5.50
2018-11-10T13:05:10.564Z,5.33
2018-11-10T13:07:40.983Z,5.50
2018-11-10T13:10:10.329Z,5.70
2018-11-10T13:12:39.302Z,5.07
2018-11-10T13:15:09.525Z,5.50
2018-11-10T13:17:39.484Z,5.77
2018-11-10T13:20:11.167Z,6.73
2018-11-10T13:22:39.724Z,6.37
2018-11-10T13:25:09.338Z,6.50
2018-11-10T13:27:41.827Z,7.70
2018-11-10T13:30:12.603Z,7.40
2018-11-10T13:32:42.005Z,7.63
2018-11-10T13:35:11.658Z,7.93
2018-11-10T13:37:41.325Z,7.10
2018-11-10T13:40:10.557Z,6.97
2018-11-10T13:42:40.483Z,7.60
2018-11-10T13:45:11.182Z,7.73
2018-11-10T13:47:39.661Z,7.80
2018-11-10T13:50:09.853Z,7.70
2018-11-10T13:52:42.013Z,8.80
2018-11-10T13:55:11.044Z,8.53
2018-11-10T13:57:44.447Z,8.53
2018-11-10T14:00:16.860Z,9.20
2018-11-10T14:02:45.329Z,7.93
2018-11-10T14:05:14.887Z,8.57
2018-11-10T14:07:44.389Z,8.70
2018-11-10T14:10:15.165Z,10.83
2018-11-10T14:12:45.123Z,10.87
2018-11-10T14:15:16.001Z,10.30
2018-11-10T14:17:46.096Z,11.40
2018-11-10T14:20:17.012Z,10.03
2018-11-10T14:22:46.768Z,10.20
2018-11-10T14:25:17.352Z,12.30
2018-11-10T14:27:46.002Z,10.13
2018-11-10T14:30:16.007Z,10.87
2018-11-10T14:32:44.992Z,9.07
2018-11-10T14:35:13.658Z,9.30
2018-11-10T14:37:43.079Z,9.17
2018-11-10T14:40:14.486Z,9.97
2018-11-10T14:42:43.736Z,8.17
2018-11-10T14:45:13.548Z,7.43
2018-11-10T14:47:43.452Z,6.73
2018-11-10T14:50:12.841Z,7.30
2018-11-10T14:52:41.487Z,7.70
2018-11-10T14:55:10.841Z,7.07
2018-11-10T14:57:39.675Z,6.80
2018-11-10T15:00:16.189Z,7.10
2018-11-10T15:02:44.784Z,5.90
2018-11-10T15:05:14.248Z,6.17
2018-11-10T15:07:43.582Z,6.10
2018-11-10T15:10:14.723Z,6.27
2018-11-10T15:12:44.189Z,5.90
2018-11-10T15:15:13.917Z,6.07
2018-11-10T15:17:44.452Z,5.50
2018-11-10T15:20:15.880Z,5.40
2018-11-10T15:22:44.576Z,5.80
2018-11-10T15:25:15.126Z,5.30
2018-11-10T15:27:43.749Z,5.83
2018-11-10T15:30:15.028Z,4.97
2018-11-10T15:32:45.201Z,5.90
2018-11-10T15:35:15.765Z,6.47
2018-11-10T15:37:47.092Z,6.50
2018-11-10T15:40:17.413Z,6.70
2018-11-10T15:42:46.071Z,6.93
2018-11-10T15:45:17.501Z,7.73
2018-11-10T15:47:46.515Z,7.90
2018-11-10T15:50:16.462Z,7.72
2018-11-10T15:52:46.406Z,7.60
2018-11-10T15:55:15.952Z,6.57
2018-11-10T15:57:44.634Z,7.40
2018-11-10T16:00:16.157Z,7.50
2018-11-10T16:02:44.699Z,6.87
2018-11-10T16:05:14.824Z,7.50
2018-11-10T16:07:50.068Z,7.30
2018-11-10T16:10:18.864Z,7.10
2018-11-10T16:12:47.633Z,7.43
2018-11-10T16:15:17.107Z,7.27
2018-11-10T16:17:45.739Z,6.73
2018-11-10T16:20:19.626Z,6.00
2018-11-10T16:22:50.035Z,6.10
2018-11-10T16:25:18.828Z,6.33
2018-11-10T16:27:47.505Z,6.00
2018-11-10T16:30:17.364Z,5.87
2018-11-10T16:32:49.938Z,5.63
2018-11-10T16:35:18.472Z,5.97
2018-11-10T16:37:48.023Z,5.70
2018-11-10T16:40:17.904Z,6.07
2018-11-10T16:42:47.886Z,5.53
2018-11-10T16:45:20.188Z,5.40
2018-11-10T16:47:52.654Z,5.60
2018-11-10T16:50:22.358Z,5.43
2018-11-10T16:52:51.175Z,4.70
2018-11-10T16:55:19.980Z,6.00
2018-11-10T16:57:48.544Z,5.80
2018-11-10T17:00:18.308Z,5.10
2018-11-10T17:02:47.161Z,5.90
2018-11-10T17:05:16.624Z,6.53
2018-11-10T17:07:45.240Z,6.40
2018-11-10T17:10:15.838Z,7.23
2018-11-10T17:12:45.084Z,6.33
2018-11-10T17:15:13.818Z,6.97
2018-11-10T17:17:42.340Z,7.07
2018-11-10T17:20:13.422Z,6.47
2018-11-10T17:22:42.615Z,6.57
2018-11-10T17:25:12.772Z,6.70
2018-11-10T17:27:41.652Z,7.27
2018-11-10T17:30:19.735Z,7.37
2018-11-10T17:32:48.144Z,7.77
2018-11-10T17:35:16.950Z,8.57
2018-11-10T17:37:46.166Z,8.60
2018-11-10T17:40:15.196Z,8.70
2018-11-10T17:42:43.719Z,8.87
2018-11-10T17:45:13.348Z,9.57
2018-11-10T17:50:16.741Z,8.80
2018-11-10T17:52:45.343Z,8.80
2018-11-10T17:55:15.987Z,10.00
2018-11-10T17:57:45.413Z,9.70
2018-11-10T18:00:13.850Z,10.40
2018-11-10T18:02:43.432Z,10.03
2018-11-10T18:05:13.197Z,11.10
2018-11-10T18:07:41.623Z,11.00
2018-11-10T18:10:13.194Z,11.37
2018-11-10T18:12:42.368Z,11.70
2018-11-10T18:15:11.116Z,10.60
2018-11-10T18:17:39.907Z,11.17
2018-11-10T18:20:11.111Z,11.50
2018-11-10T18:22:39.717Z,12.67
2018-11-10T18:25:08.136Z,12.93
2018-11-10T18:27:36.526Z,12.40
2018-11-10T18:30:07.168Z,11.73
2018-11-10T18:32:35.855Z,12.13
2018-11-10T18:35:06.028Z,13.20
2018-11-10T18:37:35.166Z,13.80
2018-11-10T18:40:03.918Z,12.60
2018-11-10T18:42:32.684Z,12.07
2018-11-10T18:45:06.893Z,12.50
2018-11-10T18:47:35.961Z,13.80
2018-11-10T18:50:07.131Z,13.80
2018-11-10T18:52:35.912Z,13.10
2018-11-10T18:55:04.463Z,13.20
2018-11-10T18:57:33.350Z,13.80
2018-11-10T19:00:02.768Z,14.20
2018-11-10T19:02:31.513Z,14.40
2018-11-10T19:05:01.483Z,16.33
2018-11-10T19:07:33.131Z,16.67
2018-11-10T19:10:02.314Z,18.03
2018-11-10T19:12:30.947Z,17.20
2018-11-10T19:14:59.423Z,18.37
2018-11-10T19:17:28.611Z,18.10
2018-11-10T19:19:57.120Z,17.87
2018-11-10T19:22:26.714Z,16.90
2018-11-10T19:24:56.224Z,17.17
2018-11-10T19:27:24.868Z,17.97
2018-11-10T19:29:54.154Z,16.17
2018-11-10T19:32:22.722Z,15.27
2018-11-10T19:34:51.044Z,13.97
2018-11-10T19:37:19.553Z,15.20
2018-11-10T19:39:49.253Z,13.83
2018-11-10T19:42:17.795Z,14.40
2018-11-10T19:44:46.169Z,14.13
2018-11-10T19:47:15.389Z,13.30
2018-11-10T19:49:44.415Z,12.90
2018-11-10T19:52:13.248Z,14.00
2018-11-10T19:54:44.520Z,14.40
2018-11-10T19:57:13.420Z,13.40
2018-11-10T19:59:42.086Z,13.20
2018-11-10T20:02:12.035Z,12.20
2018-11-10T20:04:42.555Z,12.03
2018-11-10T20:07:11.055Z,12.90
2018-11-10T20:09:41.385Z,12.17
2018-11-10T20:12:09.887Z,12.03
2018-11-10T20:14:39.050Z,11.70
2018-11-10T20:17:07.715Z,11.23
2018-11-10T20:19:36.239Z,11.63
2018-11-10T20:22:05.204Z,12.03
2018-11-10T20:24:33.854Z,10.67
2018-11-10T20:27:03.120Z,10.87
2018-11-10T20:29:31.725Z,10.80
2018-11-10T20:32:00.358Z,10.17
2018-11-10T20:37:07.609Z,11.30
2018-11-10T20:39:43.174Z,11.60
2018-11-10T20:42:12.135Z,11.30
2018-11-10T20:44:40.606Z,12.00
2018-11-10T20:47:08.999Z,10.73
2018-11-10T20:49:37.985Z,11.03
2018-11-10T20:52:06.639Z,10.70
2018-11-10T20:54:35.154Z,10.63
2018-11-10T20:57:04.304Z,11.90
2018-11-10T20:59:33.672Z,10.97
2018-11-10T21:02:02.198Z,10.60
2018-11-10T21:04:30.704Z,11.23
2018-11-10T21:06:59.009Z,11.03
2018-11-10T21:09:27.667Z,11.53
2018-11-10T21:11:56.552Z,11.50
2018-11-10T21:14:25.146Z,11.87
2018-11-10T21:16:53.533Z,11.87
2018-11-10T21:19:22.034Z,11.90
2018-11-10T21:21:50.788Z,11.97
2018-11-10T21:24:21.240Z,13.47
2018-11-10T21:26:50.761Z,14.00
2018-11-10T21:29:19.220Z,13.40
2018-11-10T21:31:48.081Z,12.33
2018-11-10T21:34:16.793Z,13.03
2018-11-10T21:36:45.798Z,12.53
2018-11-10T21:39:14.432Z,13.50
2018-11-10T21:41:42.928Z,13.30
2018-11-10T21:44:11.442Z,13.77
2018-11-10T21:46:40.908Z,13.47
2018-11-10T21:49:09.494Z,12.87
2018-11-10T21:51:37.878Z,14.80
2018-11-10T21:54:06.595Z,15.83
2018-11-10T21:56:36.116Z,15.00
2018-11-10T21:59:04.736Z,17.30
2018-11-10T22:01:33.396Z,16.83
2018-11-10T22:04:04.030Z,18.27
2018-11-10T22:06:32.677Z,17.97
2018-11-10T22:09:01.173Z,18.00
2018-11-10T22:11:29.632Z,20.20
2018-11-10T22:13:59.155Z,17.87
2018-11-10T22:16:30.098Z,20.93
2018-11-10T22:18:58.759Z,17.30
2018-11-10T22:21:27.291Z,19.80
2018-11-10T22:23:55.635Z,19.67
2018-11-10T22:26:24.232Z,21.80
2018-11-10T22:28:52.632Z,22.13
2018-11-10T22:31:21.013Z,21.97
2018-11-10T22:33:49.494Z,19.57
2018-11-10T22:36:18.034Z,19.97
2018-11-10T22:38:47.423Z,20.40
2018-11-10T22:41:16.208Z,20.17
2018-11-10T22:43:45.147Z,20.13
2018-11-10T22:46:14.263Z,22.50
2018-11-10T22:48:43.283Z,23.57
2018-11-10T22:51:11.665Z,23.37
2018-11-10T22:53:40.100Z,24.50
2018-11-10T22:56:08.740Z,22.63
2018-11-10T22:58:37.032Z,22.67
2018-11-10T23:01:08.337Z,22.90
2018-11-10T23:03:37.715Z,22.30
2018-11-10T23:06:06.860Z,21.93
2018-11-10T23:08:35.187Z,22.20
2018-11-10T23:11:03.771Z,21.90
2018-11-10T23:13:32.124Z,21.93
2018-11-10T23:16:00.398Z,22.70
2018-11-10T23:18:28.939Z,21.63
2018-11-10T23:20:57.274Z,21.17
2018-11-10T23:23:25.644Z,21.57
2018-11-10T23:25:53.979Z,23.23
2018-11-10T23:28:22.347Z,30.80
2018-11-10T23:30:50.683Z,26.13
2018-11-10T23:33:19.006Z,25.60
2018-11-10T23:35:47.483Z,24.60
2018-11-10T23:38:15.750Z,26.00
2018-11-10T23:40:44.084Z,25.20
2018-11-10T23:43:12.521Z,24.83
2018-11-10T23:45:40.835Z,24.77
2018-11-10T23:48:09.258Z,25.83
2018-11-10T23:50:37.898Z,24.60
2018-11-10T23:53:06.790Z,22.60
2018-11-10T23:55:35.220Z,22.50
2018-11-10T23:58:03.701Z,22.00
